»·PEaware :: ENY318 KLAS-KFAT

ENY318 :: KLAS-KFAT

FLIGHT INFORMATION

Flight Status: Arrived
Operator: Unknown
More flights by this operator :: More flights under this callsign
Pilot: Aundrey S. (17120)
Aircraft: EMBRAER EMB-145XR
(E45X)
More flights by this aircraft type
Origin: KLAS McCarran Intl
United States
Destination: KFAT Fresno Yosemite Intl
United States
More flights between these airports :: More routes between these airports
Route: SHEAD1 KENNO Q162 CABAB FRA
File this flight plan on PilotEdge
Remarks:
Altitude:
(Current/Filed)
28,000ft
Speed:
(Current/Filed)
450kts
Departed: 09-Jan-21 06:13 PM
Arrived: 09-Jan-21 07:19 PM
Distance/Time
Traveled:
224nm/1:06
Distance/Time
To Go:
Arrived

Flight Plot

Page will automatically refresh every two minutes.

Flight plan parsing failed; only flown route is shown


Map Options




Map Legend


Flown Route
Filed Route
Departure Airport
Arrival Airport
Navaid (VOR, NDB)
Fix

Horizontal Profiles

Position Reports

Time Latitude Longitude Heading Altitude Ground
Speed
09-Jan-21 17:24 36.079908 -115.140466 62 2075ft 0kts
09-Jan-21 17:24 36.079908 -115.140466 62 2075ft 0kts
09-Jan-21 17:26 36.079908 -115.140466 62 2075ft 0kts
09-Jan-21 17:27 36.079908 -115.140466 62 2075ft 0kts
09-Jan-21 17:27 36.079908 -115.140466 62 2075ft 0kts
09-Jan-21 17:28 36.079908 -115.140466 62 2075ft 0kts
09-Jan-21 17:29 36.079908 -115.140466 62 2075ft 0kts
09-Jan-21 17:30 36.079908 -115.140466 62 2075ft 0kts
09-Jan-21 17:31 36.079908 -115.140466 62 2075ft 0kts
09-Jan-21 17:32 36.079908 -115.140466 62 2075ft 0kts
09-Jan-21 17:33 36.079908 -115.140466 62 2075ft 0kts
09-Jan-21 17:34 36.079908 -115.140466 62 2075ft 0kts
09-Jan-21 17:35 36.079908 -115.140466 62 2075ft 0kts
09-Jan-21 17:36 36.079908 -115.140466 62 2075ft 0kts
09-Jan-21 17:37 36.079908 -115.140466 62 2075ft 0kts
09-Jan-21 17:38 36.079908 -115.140466 62 2075ft 0kts
09-Jan-21 17:39 36.079908 -115.140466 62 2075ft 0kts
09-Jan-21 17:40 36.079908 -115.140466 62 2075ft 0kts
09-Jan-21 17:41 36.079908 -115.140466 62 2075ft 0kts
09-Jan-21 17:42 36.079908 -115.140466 62 2075ft 0kts
09-Jan-21 17:43 36.079908 -115.140466 62 2075ft 0kts
09-Jan-21 17:44 36.079908 -115.140466 62 2075ft 0kts
09-Jan-21 17:45 36.079908 -115.140466 62 2075ft 0kts
09-Jan-21 17:46 36.079908 -115.140466 62 2075ft 0kts
09-Jan-21 17:47 36.079908 -115.140466 62 2075ft 0kts
09-Jan-21 17:48 36.079908 -115.140466 62 2075ft 0kts
09-Jan-21 17:49 36.079908 -115.140466 62 2075ft 0kts
09-Jan-21 17:50 36.079908 -115.140466 62 2075ft 0kts
09-Jan-21 17:51 36.079908 -115.140466 62 2075ft 0kts
09-Jan-21 17:52 36.079908 -115.140466 62 2075ft 0kts
09-Jan-21 17:53 36.079908 -115.140466 62 2075ft 0kts
09-Jan-21 17:54 36.079908 -115.140466 62 2075ft 0kts
09-Jan-21 17:55 36.079908 -115.140466 62 2075ft 0kts
09-Jan-21 17:56 36.079908 -115.140466 62 2075ft 0kts
09-Jan-21 17:57 36.079908 -115.140466 62 2075ft 0kts
09-Jan-21 17:58 36.079908 -115.140466 62 2075ft 0kts
09-Jan-21 17:59 36.079890 -115.140699 88 2076ft 2kts
09-Jan-21 18:00 36.080207 -115.141262 163 2077ft 2kts
09-Jan-21 18:01 36.080368 -115.141288 181 2077ft 0kts
09-Jan-21 18:02 36.080368 -115.141288 181 2077ft 0kts
09-Jan-21 18:03 36.080368 -115.141288 181 2077ft 0kts
09-Jan-21 18:04 36.080368 -115.141288 181 2077ft 0kts
09-Jan-21 18:05 36.080368 -115.141288 181 2077ft 0kts
09-Jan-21 18:06 36.080368 -115.141288 181 2077ft 0kts
09-Jan-21 18:07 36.078264 -115.139168 90 2075ft 18kts
09-Jan-21 18:08 36.078277 -115.130316 89 2048ft 25kts
09-Jan-21 18:09 36.078195 -115.122641 117 2034ft 16kts
09-Jan-21 18:10 36.077455 -115.121456 136 2035ft 0kts
09-Jan-21 18:11 36.077371 -115.121371 146 2035ft 4kts
09-Jan-21 18:12 36.076414 -115.132069 270 2056ft 149kts
09-Jan-21 18:13 36.076130 -115.198881 272 4524ft 237kts
09-Jan-21 18:14 36.045393 -115.266699 202 6307ft 261kts
09-Jan-21 18:15 35.976623 -115.299266 206 7245ft 258kts
09-Jan-21 18:16 35.920908 -115.362550 225 9412ft 291kts
09-Jan-21 18:17 35.886560 -115.457446 276 11690ft 353kts
09-Jan-21 18:18 35.889072 -115.579019 277 13931ft 340kts
09-Jan-21 18:19 35.891241 -115.694395 277 16105ft 335kts
09-Jan-21 18:20 35.893196 -115.811489 278 18305ft 342kts
09-Jan-21 18:21 35.895063 -115.928495 278 20465ft 342kts
09-Jan-21 18:22 35.939729 -116.020884 318 22662ft 330kts
09-Jan-21 18:23 36.008962 -116.101185 319 24845ft 352kts
09-Jan-21 18:24 36.081955 -116.185373 318 26998ft 366kts
09-Jan-21 18:25 36.157036 -116.272181 318 28256ft 372kts
09-Jan-21 18:26 36.233568 -116.360901 318 28261ft 386kts
09-Jan-21 18:27 36.313653 -116.454020 318 28256ft 398kts
09-Jan-21 18:28 36.394504 -116.548300 318 28254ft 399kts
09-Jan-21 18:29 36.474923 -116.642341 318 28252ft 400kts
09-Jan-21 18:30 36.556622 -116.738184 317 28260ft 402kts
09-Jan-21 18:31 36.650189 -116.813304 328 28265ft 402kts
09-Jan-21 18:32 36.746079 -116.886230 328 28258ft 404kts
09-Jan-21 18:33 36.841867 -116.959272 328 28241ft 404kts
09-Jan-21 18:34 36.937396 -117.032333 328 28274ft 404kts
09-Jan-21 18:35 37.032226 -117.105077 328 28286ft 405kts
09-Jan-21 18:36 37.128450 -117.179112 328 28295ft 406kts
09-Jan-21 18:37 37.224890 -117.253531 328 28294ft 408kts
09-Jan-21 18:38 37.300585 -117.353195 284 28298ft 420kts
09-Jan-21 18:39 37.315530 -117.499163 281 28269ft 423kts
09-Jan-21 18:40 37.328858 -117.646355 281 28245ft 424kts
09-Jan-21 18:41 37.342014 -117.793877 280 28249ft 425kts
09-Jan-21 18:42 37.346441 -117.941747 269 28245ft 424kts
09-Jan-21 18:43 37.333428 -118.093033 268 28246ft 434kts
09-Jan-21 18:44 37.320224 -118.242209 268 28246ft 427kts
09-Jan-21 18:45 37.306962 -118.390086 268 28249ft 431kts
09-Jan-21 18:46 37.293212 -118.541114 268 28247ft 440kts
09-Jan-21 18:47 37.279156 -118.693240 267 28263ft 427kts
09-Jan-21 18:49 37.253867 -118.837847 260 28313ft 423kts
09-Jan-21 18:50 37.226186 -118.980387 260 28313ft 416kts
09-Jan-21 18:51 37.198781 -119.120451 260 28316ft 412kts
09-Jan-21 18:52 37.171444 -119.259148 260 28292ft 407kts
09-Jan-21 18:53 37.145818 -119.391342 261 26241ft 378kts
09-Jan-21 18:54 37.121852 -119.516314 261 24320ft 358kts
09-Jan-21 18:55 37.064055 -119.608302 208 24309ft 373kts
09-Jan-21 18:56 36.966592 -119.660151 207 24299ft 387kts
09-Jan-21 18:57 36.865942 -119.713815 207 24293ft 397kts
09-Jan-21 18:58 36.763321 -119.768529 207 22924ft 403kts
09-Jan-21 18:59 36.661209 -119.823182 207 21120ft 397kts
09-Jan-21 19:00 36.558053 -119.838192 147 19271ft 388kts
09-Jan-21 19:01 36.496351 -119.737601 122 17470ft 347kts
09-Jan-21 19:02 36.444432 -119.644727 122 15633ft 304kts
09-Jan-21 19:03 36.398047 -119.562644 122 14018ft 281kts
09-Jan-21 19:03 36.361193 -119.497630 122 14008ft 273kts
09-Jan-21 19:04 36.317413 -119.420437 122 12861ft 276kts
09-Jan-21 19:06 36.302923 -119.329331 26 10803ft 239kts
09-Jan-21 19:07 36.358113 -119.357421 332 9075ft 229kts
09-Jan-21 19:07 36.405916 -119.385651 337 7582ft 229kts
09-Jan-21 19:08 36.459261 -119.413385 338 5858ft 199kts
09-Jan-21 19:09 36.510646 -119.440038 337 4034ft 198kts
09-Jan-21 19:10 36.559364 -119.465946 337 2987ft 169kts
09-Jan-21 19:11 36.602107 -119.488818 337 3001ft 164kts
09-Jan-21 19:12 36.644043 -119.511216 337 2997ft 161kts
09-Jan-21 19:13 36.677569 -119.544210 308 2997ft 156kts
09-Jan-21 19:14 36.702808 -119.588061 307 2578ft 149kts
09-Jan-21 19:15 36.726055 -119.628623 307 1819ft 140kts
09-Jan-21 19:16 36.748611 -119.667811 306 987ft 136kts
09-Jan-21 19:17 36.770005 -119.705594 305 353ft 131kts
09-Jan-21 19:18 36.782890 -119.728133 305 334ft 27kts
09-Jan-21 19:19 36.784749 -119.731583 121 334ft 16kts
09-Jan-21 19:20 36.782832 -119.730940 219 333ft 12kts
09-Jan-21 19:21 36.779823 -119.729250 125 331ft 23kts
09-Jan-21 19:22 36.775277 -119.721261 124 332ft 18kts
09-Jan-21 19:23 36.772572 -119.719391 206 329ft 13kts
09-Jan-21 19:24 36.771501 -119.719257 125 328ft 0kts
09-Jan-21 19:25 36.771501 -119.719257 125 328ft 0kts
09-Jan-21 19:26 36.771501 -119.719257 125 328ft 0kts
09-Jan-21 19:27 36.771501 -119.719257 125 328ft 0kts
09-Jan-21 19:28 36.771501 -119.719257 125 328ft 0kts
09-Jan-21 19:29 36.771501 -119.719257 125 328ft 0kts
09-Jan-21 19:30 36.771501 -119.719257 125 328ft 0kts
09-Jan-21 19:31 36.771501 -119.719257 125 328ft 0kts
09-Jan-21 19:32 36.771501 -119.719257 125 328ft 0kts

Navigation Log

Ident Type
Flight plan parsing failed, navigation log unavailable